sensor_id;sensor_type;location;lat;lon;timestamp;pressure;altitude;pressure_sealevel;temperature;humidity
33151;BME280;19508;42.578;23.416;2022-09-09T00:00:13;93935.69;;;19.13;65.83
33151;BME280;19508;42.578;23.416;2022-09-09T00:02:42;93936.00;;;19.11;65.88
33151;BME280;19508;42.578;23.416;2022-09-09T00:08:24;93925.38;;;19.10;66.08
33151;BME280;19508;42.578;23.416;2022-09-09T00:10:58;93918.41;;;19.04;66.49
33151;BME280;19508;42.578;23.416;2022-09-09T00:16:15;93918.63;;;19.07;66.68
33151;BME280;19508;42.578;23.416;2022-09-09T00:21:37;93917.41;;;19.00;66.47
33151;BME280;19508;42.578;23.416;2022-09-09T00:24:26;93918.94;;;19.06;66.23
33151;BME280;19508;42.578;23.416;2022-09-09T00:27:00;93923.28;;;19.07;66.32
33151;BME280;19508;42.578;23.416;2022-09-09T00:29:41;93918.72;;;19.02;66.13
33151;BME280;19508;42.578;23.416;2022-09-09T00:32:16;93925.06;;;19.11;65.84
33151;BME280;19508;42.578;23.416;2022-09-09T00:35:05;93917.38;;;19.13;65.32
33151;BME280;19508;42.578;23.416;2022-09-09T00:37:41;93903.06;;;19.08;65.69
33151;BME280;19508;42.578;23.416;2022-09-09T00:40:41;93905.38;;;19.01;66.21
33151;BME280;19508;42.578;23.416;2022-09-09T00:43:43;93907.19;;;19.05;66.26
33151;BME280;19508;42.578;23.416;2022-09-09T00:46:11;93893.66;;;19.00;66.30
33151;BME280;19508;42.578;23.416;2022-09-09T00:49:04;93895.66;;;18.95;66.70
33151;BME280;19508;42.578;23.416;2022-09-09T00:57:33;93887.78;;;18.79;67.69
33151;BME280;19508;42.578;23.416;2022-09-09T01:05:30;93880.28;;;18.71;67.65
33151;BME280;19508;42.578;23.416;2022-09-09T01:08:01;93875.47;;;18.68;67.50
33151;BME280;19508;42.578;23.416;2022-09-09T01:10:58;93875.00;;;18.61;67.85
33151;BME280;19508;42.578;23.416;2022-09-09T01:13:33;93894.91;;;18.48;68.39
33151;BME280;19508;42.578;23.416;2022-09-09T01:16:02;93890.97;;;18.40;68.48
33151;BME280;19508;42.578;23.416;2022-09-09T01:18:41;93896.84;;;18.47;68.74
33151;BME280;19508;42.578;23.416;2022-09-09T01:24:19;93898.41;;;18.35;69.41
33151;BME280;19508;42.578;23.416;2022-09-09T01:26:49;93894.75;;;18.25;69.41
33151;BME280;19508;42.578;23.416;2022-09-09T01:29:18;93891.41;;;18.28;69.74
33151;BME280;19508;42.578;23.416;2022-09-09T01:31:56;93890.72;;;18.23;70.12
33151;BME280;19508;42.578;23.416;2022-09-09T01:34:24;93881.81;;;18.17;70.34
33151;BME280;19508;42.578;23.416;2022-09-09T01:37:07;93876.97;;;18.14;70.26
33151;BME280;19508;42.578;23.416;2022-09-09T01:39:35;93878.38;;;18.12;70.39
33151;BME280;19508;42.578;23.416;2022-09-09T01:42:02;93880.00;;;18.13;70.46
33151;BME280;19508;42.578;23.416;2022-09-09T01:44:29;93887.63;;;18.11;70.32
33151;BME280;19508;42.578;23.416;2022-09-09T01:46:55;93884.78;;;18.02;70.30
33151;BME280;19508;42.578;23.416;2022-09-09T01:49:21;93893.69;;;18.08;70.37
33151;BME280;19508;42.578;23.416;2022-09-09T01:51:50;93897.34;;;18.17;69.99
33151;BME280;19508;42.578;23.416;2022-09-09T01:54:18;93901.00;;;18.12;70.19
33151;BME280;19508;42.578;23.416;2022-09-09T01:59:57;93898.25;;;18.12;70.34
33151;BME280;19508;42.578;23.416;2022-09-09T02:02:35;93894.88;;;18.01;70.84
33151;BME280;19508;42.578;23.416;2022-09-09T02:07:48;93890.66;;;18.09;70.18
33151;BME280;19508;42.578;23.416;2022-09-09T02:10:21;93895.63;;;18.07;70.17
33151;BME280;19508;42.578;23.416;2022-09-09T02:12:58;93896.50;;;18.02;70.49
33151;BME280;19508;42.578;23.416;2022-09-09T02:15:32;93900.31;;;18.01;70.46
33151;BME280;19508;42.578;23.416;2022-09-09T02:18:00;93888.13;;;17.99;70.49
33151;BME280;19508;42.578;23.416;2022-09-09T02:20:32;93895.69;;;18.02;70.24
33151;BME280;19508;42.578;23.416;2022-09-09T02:22:58;93888.44;;;18.11;70.14
33151;BME280;19508;42.578;23.416;2022-09-09T02:25:26;93893.69;;;18.08;69.97
33151;BME280;19508;42.578;23.416;2022-09-09T02:27:52;93884.22;;;18.05;69.89
33151;BME280;19508;42.578;23.416;2022-09-09T02:30:19;93882.88;;;18.02;70.02
33151;BME280;19508;42.578;23.416;2022-09-09T02:32:47;93887.00;;;18.00;69.64
33151;BME280;19508;42.578;23.416;2022-09-09T02:35:18;93883.31;;;18.10;69.11
33151;BME280;19508;42.578;23.416;2022-09-09T02:37:45;93873.81;;;18.07;69.29
33151;BME280;19508;42.578;23.416;2022-09-09T02:40:15;93875.72;;;18.07;68.97
33151;BME280;19508;42.578;23.416;2022-09-09T02:42:42;93885.22;;;18.09;69.12
33151;BME280;19508;42.578;23.416;2022-09-09T02:45:11;93878.38;;;18.12;68.78
33151;BME280;19508;42.578;23.416;2022-09-09T02:50:33;93880.19;;;18.16;68.99
33151;BME280;19508;42.578;23.416;2022-09-09T02:55:58;93894.06;;;18.33;68.10
33151;BME280;19508;42.578;23.416;2022-09-09T02:58:25;93892.03;;;18.25;68.10
33151;BME280;19508;42.578;23.416;2022-09-09T03:00:51;93902.84;;;18.30;68.47
33151;BME280;19508;42.578;23.416;2022-09-09T03:03:18;93895.25;;;18.27;68.31
33151;BME280;19508;42.578;23.416;2022-09-09T03:05:45;93888.13;;;18.31;67.81
33151;BME280;19508;42.578;23.416;2022-09-09T03:08:11;93882.31;;;18.19;68.60
33151;BME280;19508;42.578;23.416;2022-09-09T03:10:38;93890.91;;;18.26;67.97
33151;BME280;19508;42.578;23.416;2022-09-09T03:13:04;93894.25;;;18.23;68.44
33151;BME280;19508;42.578;23.416;2022-09-09T03:15:31;93892.13;;;18.20;68.35
33151;BME280;19508;42.578;23.416;2022-09-09T03:17:57;93896.38;;;18.26;68.13
33151;BME280;19508;42.578;23.416;2022-09-09T03:20:24;93894.56;;;18.22;68.39
33151;BME280;19508;42.578;23.416;2022-09-09T03:22:51;93893.75;;;18.21;68.49
33151;BME280;19508;42.578;23.416;2022-09-09T03:25:17;93905.66;;;18.25;68.23
33151;BME280;19508;42.578;23.416;2022-09-09T03:27:43;93896.97;;;18.23;68.08
33151;BME280;19508;42.578;23.416;2022-09-09T03:30:09;93904.41;;;18.18;68.46
33151;BME280;19508;42.578;23.416;2022-09-09T03:32:34;93902.19;;;18.06;69.09
33151;BME280;19508;42.578;23.416;2022-09-09T03:35:00;93903.19;;;18.10;69.23
33151;BME280;19508;42.578;23.416;2022-09-09T03:37:25;93903.03;;;18.20;68.45
33151;BME280;19508;42.578;23.416;2022-09-09T03:39:51;93904.28;;;18.09;68.70
33151;BME280;19508;42.578;23.416;2022-09-09T03:42:16;93899.34;;;18.11;68.47
33151;BME280;19508;42.578;23.416;2022-09-09T03:44:45;93904.28;;;18.09;68.81
33151;BME280;19508;42.578;23.416;2022-09-09T03:47:20;93905.28;;;17.99;69.23
33151;BME280;19508;42.578;23.416;2022-09-09T03:49:47;93912.03;;;18.02;69.17
33151;BME280;19508;42.578;23.416;2022-09-09T03:52:13;93898.50;;;17.97;69.11
33151;BME280;19508;42.578;23.416;2022-09-09T03:54:39;93902.84;;;17.98;69.37
33151;BME280;19508;42.578;23.416;2022-09-09T03:57:04;93910.22;;;17.97;69.72
33151;BME280;19508;42.578;23.416;2022-09-09T03:59:30;93900.19;;;17.93;70.03
33151;BME280;19508;42.578;23.416;2022-09-09T04:01:55;93898.81;;;17.95;69.93
33151;BME280;19508;42.578;23.416;2022-09-09T04:04:22;93892.13;;;17.88;70.12
33151;BME280;19508;42.578;23.416;2022-09-09T04:06:48;93904.19;;;17.82;70.24
33151;BME280;19508;42.578;23.416;2022-09-09T04:09:14;93906.31;;;17.85;70.37
33151;BME280;19508;42.578;23.416;2022-09-09T04:11:40;93913.78;;;17.79;70.58
33151;BME280;19508;42.578;23.416;2022-09-09T04:14:06;93909.94;;;17.80;70.66
33151;BME280;19508;42.578;23.416;2022-09-09T04:16:32;93913.38;;;17.86;70.72
33151;BME280;19508;42.578;23.416;2022-09-09T04:18:58;93909.56;;;17.87;70.25
33151;BME280;19508;42.578;23.416;2022-09-09T04:21:25;93913.38;;;17.86;70.17
33151;BME280;19508;42.578;23.416;2022-09-09T04:23:50;93897.63;;;17.83;69.78
33151;BME280;19508;42.578;23.416;2022-09-09T04:26:16;93905.75;;;17.88;69.71
33151;BME280;19508;42.578;23.416;2022-09-09T04:28:42;93908.38;;;17.93;69.89
33151;BME280;19508;42.578;23.416;2022-09-09T04:31:16;93910.53;;;17.96;69.99
33151;BME280;19508;42.578;23.416;2022-09-09T04:33:43;93901.44;;;18.00;69.46
33151;BME280;19508;42.578;23.416;2022-09-09T04:36:09;93912.03;;;18.02;69.77
33151;BME280;19508;42.578;23.416;2022-09-09T04:38:34;93900.19;;;18.12;69.27
33151;BME280;19508;42.578;23.416;2022-09-09T04:41:00;93900.38;;;18.15;69.11
33151;BME280;19508;42.578;23.416;2022-09-09T04:43:26;93909.88;;;18.18;69.25
33151;BME280;19508;42.578;23.416;2022-09-09T04:45:52;93906.84;;;18.19;69.19
33151;BME280;19508;42.578;23.416;2022-09-09T04:48:18;93917.59;;;18.29;68.33
33151;BME280;19508;42.578;23.416;2022-09-09T04:50:44;93916.38;;;18.36;68.29
33151;BME280;19508;42.578;23.416;2022-09-09T04:53:18;93919.63;;;18.38;67.70
33151;BME280;19508;42.578;23.416;2022-09-09T04:55:43;93917.59;;;18.43;67.57
33151;BME280;19508;42.578;23.416;2022-09-09T04:58:09;93911.78;;;18.50;67.36
33151;BME280;19508;42.578;23.416;2022-09-09T05:00:35;93909.78;;;18.69;67.41
33151;BME280;19508;42.578;23.416;2022-09-09T05:03:07;93898.41;;;18.81;66.93
33151;BME280;19508;42.578;23.416;2022-09-09T05:05:34;93892.44;;;18.93;66.61
33151;BME280;19508;42.578;23.416;2022-09-09T05:08:07;93889.91;;;18.96;66.67
33151;BME280;19508;42.578;23.416;2022-09-09T05:10:37;93883.34;;;18.97;66.53
33151;BME280;19508;42.578;23.416;2022-09-09T05:13:03;93882.94;;;19.04;66.03
33151;BME280;19508;42.578;23.416;2022-09-09T05:15:30;93870.41;;;19.03;66.19
33151;BME280;19508;42.578;23.416;2022-09-09T05:17:59;93877.06;;;19.24;65.81
33151;BME280;19508;42.578;23.416;2022-09-09T05:20:26;93884.00;;;19.30;65.16
33151;BME280;19508;42.578;23.416;2022-09-09T05:22:55;93886.31;;;19.37;65.08
33151;BME280;19508;42.578;23.416;2022-09-09T05:25:21;93888.16;;;19.41;65.01
33151;BME280;19508;42.578;23.416;2022-09-09T05:27:47;93880.53;;;19.52;63.87
33151;BME280;19508;42.578;23.416;2022-09-09T05:30:12;93871.16;;;19.58;63.51
33151;BME280;19508;42.578;23.416;2022-09-09T05:32:38;93871.66;;;19.83;62.68
33151;BME280;19508;42.578;23.416;2022-09-09T05:35:04;93859.91;;;19.82;62.59
33151;BME280;19508;42.578;23.416;2022-09-09T05:37:30;93866.19;;;20.05;62.54
33151;BME280;19508;42.578;23.416;2022-09-09T05:39:56;93864.63;;;20.13;62.18
33151;BME280;19508;42.578;23.416;2022-09-09T05:42:21;93864.38;;;20.23;61.58
33151;BME280;19508;42.578;23.416;2022-09-09T05:44:48;93876.03;;;20.37;60.71
33151;BME280;19508;42.578;23.416;2022-09-09T05:47:13;93875.16;;;20.50;60.97
33151;BME280;19508;42.578;23.416;2022-09-09T05:49:39;93864.22;;;20.50;60.67
33151;BME280;19508;42.578;23.416;2022-09-09T05:52:05;93871.75;;;20.76;59.83
33151;BME280;19508;42.578;23.416;2022-09-09T05:54:31;93882.91;;;20.88;59.16
33151;BME280;19508;42.578;23.416;2022-09-09T05:56:58;93888.25;;;21.02;58.58
33151;BME280;19508;42.578;23.416;2022-09-09T05:59:24;93873.50;;;21.11;59.37
33151;BME280;19508;42.578;23.416;2022-09-09T06:01:49;93874.47;;;21.16;59.58
33151;BME280;19508;42.578;23.416;2022-09-09T06:04:15;93877.78;;;21.44;59.73
33151;BME280;19508;42.578;23.416;2022-09-09T06:06:41;93864.44;;;21.68;58.11
33151;BME280;19508;42.578;23.416;2022-09-09T06:09:08;93871.38;;;22.00;58.35
33151;BME280;19508;42.578;23.416;2022-09-09T06:11:39;93890.72;;;22.21;57.43
33151;BME280;19508;42.578;23.416;2022-09-09T06:14:05;93896.31;;;22.59;55.01
33151;BME280;19508;42.578;23.416;2022-09-09T06:16:31;93892.41;;;22.77;55.98
33151;BME280;19508;42.578;23.416;2022-09-09T06:19:01;93892.78;;;23.05;53.46
33151;BME280;19508;42.578;23.416;2022-09-09T06:21:33;93894.16;;;23.29;53.21
33151;BME280;19508;42.578;23.416;2022-09-09T06:23:59;93890.09;;;23.56;52.62
33151;BME280;19508;42.578;23.416;2022-09-09T06:26:33;93885.81;;;23.76;52.70
33151;BME280;19508;42.578;23.416;2022-09-09T06:28:59;93877.38;;;24.02;51.42
33151;BME280;19508;42.578;23.416;2022-09-09T06:31:27;93888.59;;;24.51;50.51
33151;BME280;19508;42.578;23.416;2022-09-09T06:33:55;93883.59;;;24.77;50.42
33151;BME280;19508;42.578;23.416;2022-09-09T06:36:25;93882.97;;;24.92;50.02
33151;BME280;19508;42.578;23.416;2022-09-09T06:38:51;93886.00;;;25.24;47.96
33151;BME280;19508;42.578;23.416;2022-09-09T06:41:18;93879.03;;;25.39;47.62
33151;BME280;19508;42.578;23.416;2022-09-09T06:43:47;93877.03;;;25.51;49.17
33151;BME280;19508;42.578;23.416;2022-09-09T06:46:15;93876.56;;;25.86;47.36
33151;BME280;19508;42.578;23.416;2022-09-09T06:48:41;93872.63;;;25.99;48.00
33151;BME280;19508;42.578;23.416;2022-09-09T06:51:10;93883.00;;;25.90;46.97
33151;BME280;19508;42.578;23.416;2022-09-09T06:53:37;93873.72;;;25.82;47.06
33151;BME280;19508;42.578;23.416;2022-09-09T06:58:49;93884.72;;;26.63;44.14
33151;BME280;19508;42.578;23.416;2022-09-09T07:01:17;93893.59;;;26.56;45.31
33151;BME280;19508;42.578;23.416;2022-09-09T07:03:46;93898.13;;;26.49;45.54
33151;BME280;19508;42.578;23.416;2022-09-09T07:06:27;93893.44;;;26.37;46.06
33151;BME280;19508;42.578;23.416;2022-09-09T07:08:58;93892.19;;;26.34;45.88
33151;BME280;19508;42.578;23.416;2022-09-09T07:11:26;93896.88;;;26.46;46.56
33151;BME280;19508;42.578;23.416;2022-09-09T07:13:53;93899.53;;;26.42;46.04
33151;BME280;19508;42.578;23.416;2022-09-09T07:16:20;93897.34;;;26.36;45.35
33151;BME280;19508;42.578;23.416;2022-09-09T07:18:46;93892.31;;;26.38;48.22
33151;BME280;19508;42.578;23.416;2022-09-09T07:21:13;93883.78;;;26.43;47.10
33151;BME280;19508;42.578;23.416;2022-09-09T07:23:39;93888.16;;;26.32;45.33
33151;BME280;19508;42.578;23.416;2022-09-09T07:26:16;93888.47;;;26.70;43.61
33151;BME280;19508;42.578;23.416;2022-09-09T07:28:42;93891.78;;;26.48;43.88
33151;BME280;19508;42.578;23.416;2022-09-09T07:31:14;93884.28;;;26.61;44.12
33151;BME280;19508;42.578;23.416;2022-09-09T07:33:42;93882.22;;;26.74;44.70
33151;BME280;19508;42.578;23.416;2022-09-09T07:36:19;93882.31;;;27.05;42.82
33151;BME280;19508;42.578;23.416;2022-09-09T07:38:56;93879.19;;;27.22;43.16
33151;BME280;19508;42.578;23.416;2022-09-09T07:43:49;93869.28;;;27.53;42.30
33151;BME280;19508;42.578;23.416;2022-09-09T07:46:17;93877.28;;;27.58;41.94
33151;BME280;19508;42.578;23.416;2022-09-09T07:48:47;93878.41;;;27.38;44.26
33151;BME280;19508;42.578;23.416;2022-09-09T07:51:17;93881.53;;;27.36;43.33
33151;BME280;19508;42.578;23.416;2022-09-09T07:53:44;93883.22;;;27.92;44.36
33151;BME280;19508;42.578;23.416;2022-09-09T07:56:13;93882.63;;;28.18;42.36
33151;BME280;19508;42.578;23.416;2022-09-09T07:58:39;93891.28;;;28.16;41.81
33151;BME280;19508;42.578;23.416;2022-09-09T08:01:07;93880.16;;;28.51;41.28
33151;BME280;19508;42.578;23.416;2022-09-09T08:03:34;93876.88;;;28.84;39.03
33151;BME280;19508;42.578;23.416;2022-09-09T08:06:01;93873.69;;;29.05;39.02
33151;BME280;19508;42.578;23.416;2022-09-09T08:08:27;93871.25;;;29.23;39.33
33151;BME280;19508;42.578;23.416;2022-09-09T08:10:53;93878.63;;;29.38;39.66
33151;BME280;19508;42.578;23.416;2022-09-09T08:13:18;93879.81;;;29.37;38.20
33151;BME280;19508;42.578;23.416;2022-09-09T08:15:44;93886.03;;;29.54;39.58
33151;BME280;19508;42.578;23.416;2022-09-09T08:18:09;93880.84;;;29.75;37.68
33151;BME280;19508;42.578;23.416;2022-09-09T08:20:36;93883.63;;;30.01;38.69
33151;BME280;19508;42.578;23.416;2022-09-09T08:23:01;93880.19;;;30.42;37.03
33151;BME280;19508;42.578;23.416;2022-09-09T08:25:27;93879.19;;;30.57;35.31
33151;BME280;19508;42.578;23.416;2022-09-09T08:27:54;93875.66;;;30.00;36.41
33151;BME280;19508;42.578;23.416;2022-09-09T08:30:19;93879.25;;;29.74;39.11
33151;BME280;19508;42.578;23.416;2022-09-09T08:32:44;93881.84;;;29.40;38.82
33151;BME280;19508;42.578;23.416;2022-09-09T08:35:10;93867.97;;;29.40;37.69
33151;BME280;19508;42.578;23.416;2022-09-09T08:37:36;93864.81;;;29.65;38.92
33151;BME280;19508;42.578;23.416;2022-09-09T08:40:02;93865.72;;;29.23;38.00
33151;BME280;19508;42.578;23.416;2022-09-09T08:42:34;93870.81;;;28.98;38.47
33151;BME280;19508;42.578;23.416;2022-09-09T08:45:19;93876.72;;;28.97;38.01
33151;BME280;19508;42.578;23.416;2022-09-09T08:50:27;93874.25;;;27.63;40.93
33151;BME280;19508;42.578;23.416;2022-09-09T08:53:22;93872.94;;;27.73;40.75
33151;BME280;19508;42.578;23.416;2022-09-09T08:55:58;93870.97;;;27.73;41.81
33151;BME280;19508;42.578;23.416;2022-09-09T08:58:32;93873.22;;;27.52;41.23
33151;BME280;19508;42.578;23.416;2022-09-09T09:11:56;93866.78;;;27.48;42.51
33151;BME280;19508;42.578;23.416;2022-09-09T09:14:27;93870.19;;;27.25;44.22
33151;BME280;19508;42.578;23.416;2022-09-09T09:19:29;93869.94;;;27.31;43.13
33151;BME280;19508;42.578;23.416;2022-09-09T09:27:30;93856.19;;;27.34;42.01
33151;BME280;19508;42.578;23.416;2022-09-09T09:29:56;93859.66;;;27.47;43.46
33151;BME280;19508;42.578;23.416;2022-09-09T09:32:24;93854.66;;;27.52;42.83
33151;BME280;19508;42.578;23.416;2022-09-09T09:34:53;93860.53;;;27.51;43.67
33151;BME280;19508;42.578;23.416;2022-09-09T09:37:32;93874.81;;;27.53;42.25
33151;BME280;19508;42.578;23.416;2022-09-09T09:40:16;93866.78;;;27.48;43.34
33151;BME280;19508;42.578;23.416;2022-09-09T09:47:46;93864.41;;;27.31;42.41
33151;BME280;19508;42.578;23.416;2022-09-09T09:50:22;93858.13;;;27.34;42.70
33151;BME280;19508;42.578;23.416;2022-09-09T09:52:59;93852.09;;;27.28;43.01
33151;BME280;19508;42.578;23.416;2022-09-09T09:55:26;93853.59;;;27.25;43.70
33151;BME280;19508;42.578;23.416;2022-09-09T09:58:06;93848.34;;;27.52;43.22
33151;BME280;19508;42.578;23.416;2022-09-09T10:00:32;93847.25;;;27.57;42.23
33151;BME280;19508;42.578;23.416;2022-09-09T10:03:00;93833.81;;;27.23;42.52
33151;BME280;19508;42.578;23.416;2022-09-09T10:05:28;93833.94;;;27.62;43.28
33151;BME280;19508;42.578;23.416;2022-09-09T10:08:13;93833.31;;;28.23;41.90
33151;BME280;19508;42.578;23.416;2022-09-09T10:13:53;93831.69;;;29.49;40.91
33151;BME280;19508;42.578;23.416;2022-09-09T10:16:24;93838.31;;;29.67;40.27
33151;BME280;19508;42.578;23.416;2022-09-09T10:19:45;93841.47;;;29.92;38.56
33151;BME280;19508;42.578;23.416;2022-09-09T10:22:25;93847.75;;;29.89;38.44
33151;BME280;19508;42.578;23.416;2022-09-09T10:27:42;93853.41;;;29.47;39.40
33151;BME280;19508;42.578;23.416;2022-09-09T10:30:19;93841.66;;;29.31;38.70
33151;BME280;19508;42.578;23.416;2022-09-09T10:46:17;93847.00;;;28.16;43.08
33151;BME280;19508;42.578;23.416;2022-09-09T10:57:45;93857.00;;;27.35;43.16
33151;BME280;19508;42.578;23.416;2022-09-09T11:03:00;93842.66;;;27.29;44.00
33151;BME280;19508;42.578;23.416;2022-09-09T11:08:03;93857.34;;;27.17;44.24
33151;BME280;19508;42.578;23.416;2022-09-09T11:13:26;93860.56;;;27.19;44.90
33151;BME280;19508;42.578;23.416;2022-09-09T11:16:27;93860.56;;;27.04;45.03
33151;BME280;19508;42.578;23.416;2022-09-09T11:18:48;93862.31;;;26.96;44.18
33151;BME280;19508;42.578;23.416;2022-09-09T11:21:45;93868.38;;;27.02;44.80
33151;BME280;19508;42.578;23.416;2022-09-09T11:24:18;93865.53;;;26.98;45.19
33151;BME280;19508;42.578;23.416;2022-09-09T11:26:55;93863.19;;;27.00;45.64
33151;BME280;19508;42.578;23.416;2022-09-09T11:38:15;93831.50;;;27.25;43.57
33151;BME280;19508;42.578;23.416;2022-09-09T11:40:43;93819.91;;;27.04;45.32
33151;BME280;19508;42.578;23.416;2022-09-09T11:45:52;93826.25;;;27.20;44.99
33151;BME280;19508;42.578;23.416;2022-09-09T11:48:33;93820.63;;;27.17;45.23
33151;BME280;19508;42.578;23.416;2022-09-09T11:53:29;93806.34;;;27.31;44.50
33151;BME280;19508;42.578;23.416;2022-09-09T11:56:06;93798.81;;;27.47;43.61
33151;BME280;19508;42.578;23.416;2022-09-09T11:58:53;93789.53;;;27.55;44.72
33151;BME280;19508;42.578;23.416;2022-09-09T12:01:36;93772.41;;;27.49;43.82
33151;BME280;19508;42.578;23.416;2022-09-09T12:07:03;93778.63;;;27.62;42.92
33151;BME280;19508;42.578;23.416;2022-09-09T12:14:44;93769.78;;;27.72;43.73
33151;BME280;19508;42.578;23.416;2022-09-09T12:17:20;93761.75;;;27.67;43.55
33151;BME280;19508;42.578;23.416;2022-09-09T12:19:47;93756.72;;;27.53;44.73
33151;BME280;19508;42.578;23.416;2022-09-09T12:27:36;93751.97;;;27.35;44.95
33151;BME280;19508;42.578;23.416;2022-09-09T12:30:12;93754.81;;;27.22;46.43
33151;BME280;19508;42.578;23.416;2022-09-09T12:32:39;93756.25;;;27.16;46.83
33151;BME280;19508;42.578;23.416;2022-09-09T12:35:26;93753.97;;;27.18;45.90
33151;BME280;19508;42.578;23.416;2022-09-09T12:37:56;93753.78;;;27.11;46.85
33151;BME280;19508;42.578;23.416;2022-09-09T12:40:25;93748.06;;;26.88;47.61
33151;BME280;19508;42.578;23.416;2022-09-09T12:42:51;93736.41;;;26.95;48.52
33151;BME280;19508;42.578;23.416;2022-09-09T12:45:23;93742.28;;;26.93;48.58
33151;BME280;19508;42.578;23.416;2022-09-09T12:50:36;93745.47;;;26.95;48.52
33151;BME280;19508;42.578;23.416;2022-09-09T12:53:24;93751.09;;;26.99;48.91
33151;BME280;19508;42.578;23.416;2022-09-09T12:56:02;93740.81;;;26.99;48.59
33151;BME280;19508;42.578;23.416;2022-09-09T12:58:29;93745.41;;;26.92;48.15
33151;BME280;19508;42.578;23.416;2022-09-09T13:00:59;93737.03;;;27.04;48.24
33151;BME280;19508;42.578;23.416;2022-09-09T13:03:25;93737.56;;;27.10;47.41
33151;BME280;19508;42.578;23.416;2022-09-09T13:05:51;93726.03;;;27.23;47.66
33151;BME280;19508;42.578;23.416;2022-09-09T13:08:18;93720.72;;;27.34;46.98
33151;BME280;19508;42.578;23.416;2022-09-09T13:13:27;93719.03;;;27.10;45.79
33151;BME280;19508;42.578;23.416;2022-09-09T13:16:00;93716.94;;;27.23;48.07
33151;BME280;19508;42.578;23.416;2022-09-09T13:18:34;93703.00;;;27.35;47.84
33151;BME280;19508;42.578;23.416;2022-09-09T13:21:01;93703.63;;;27.29;48.41
33151;BME280;19508;42.578;23.416;2022-09-09T13:23:30;93698.97;;;27.33;47.34
33151;BME280;19508;42.578;23.416;2022-09-09T13:26:53;93709.03;;;27.41;49.14
33151;BME280;19508;42.578;23.416;2022-09-09T13:28:48;93702.53;;;27.33;48.53
33151;BME280;19508;42.578;23.416;2022-09-09T13:31:30;93697.75;;;27.30;48.43
33151;BME280;19508;42.578;23.416;2022-09-09T13:33:57;93703.63;;;27.29;47.70
33151;BME280;19508;42.578;23.416;2022-09-09T13:36:30;93698.13;;;27.29;48.94
33151;BME280;19508;42.578;23.416;2022-09-09T13:38:59;93692.44;;;27.21;49.48
33151;BME280;19508;42.578;23.416;2022-09-09T13:41:36;93686.31;;;26.96;46.30
33151;BME280;19508;42.578;23.416;2022-09-09T13:44:03;93677.94;;;26.93;47.50
33151;BME280;19508;42.578;23.416;2022-09-09T13:46:39;93674.66;;;26.87;48.10
33151;BME280;19508;42.578;23.416;2022-09-09T13:51:42;93671.81;;;26.84;47.49
33151;BME280;19508;42.578;23.416;2022-09-09T13:54:10;93671.97;;;26.91;47.81
33151;BME280;19508;42.578;23.416;2022-09-09T13:56:37;93679.97;;;26.96;47.29
33151;BME280;19508;42.578;23.416;2022-09-09T13:59:05;93682.47;;;27.01;47.30
33151;BME280;19508;42.578;23.416;2022-09-09T14:01:31;93672.75;;;27.07;47.74
33151;BME280;19508;42.578;23.416;2022-09-09T14:03:58;93673.22;;;27.09;46.71
33151;BME280;19508;42.578;23.416;2022-09-09T14:06:24;93665.53;;;27.18;47.36
33151;BME280;19508;42.578;23.416;2022-09-09T14:08:50;93660.78;;;27.19;45.83
33151;BME280;19508;42.578;23.416;2022-09-09T14:11:16;93663.34;;;27.27;47.57
33151;BME280;19508;42.578;23.416;2022-09-09T14:13:43;93671.75;;;27.15;46.94
33151;BME280;19508;42.578;23.416;2022-09-09T14:16:09;93669.78;;;27.16;45.89
33151;BME280;19508;42.578;23.416;2022-09-09T14:18:35;93675.09;;;27.24;46.39
33151;BME280;19508;42.578;23.416;2022-09-09T14:21:00;93668.88;;;27.27;45.56
33151;BME280;19508;42.578;23.416;2022-09-09T14:23:27;93672.00;;;27.45;46.73
33151;BME280;19508;42.578;23.416;2022-09-09T14:25:52;93668.16;;;27.50;46.27
33151;BME280;19508;42.578;23.416;2022-09-09T14:28:18;93665.00;;;27.51;45.09
33151;BME280;19508;42.578;23.416;2022-09-09T14:30:44;93665.84;;;27.71;45.09
33151;BME280;19508;42.578;23.416;2022-09-09T14:33:12;93658.50;;;27.79;43.22
33151;BME280;19508;42.578;23.416;2022-09-09T14:35:37;93659.31;;;27.79;46.27
33151;BME280;19508;42.578;23.416;2022-09-09T14:38:04;93655.03;;;27.86;45.33
33151;BME280;19508;42.578;23.416;2022-09-09T14:40:30;93654.47;;;27.96;45.15
33151;BME280;19508;42.578;23.416;2022-09-09T14:42:55;93651.25;;;27.94;45.49
33151;BME280;19508;42.578;23.416;2022-09-09T14:45:22;93647.34;;;27.95;45.81
33151;BME280;19508;42.578;23.416;2022-09-09T14:47:50;93641.81;;;27.95;46.75
33151;BME280;19508;42.578;23.416;2022-09-09T14:50:16;93629.81;;;27.87;45.13
33151;BME280;19508;42.578;23.416;2022-09-09T14:52:42;93645.94;;;27.85;45.07
33151;BME280;19508;42.578;23.416;2022-09-09T14:55:08;93648.06;;;27.92;45.02
33151;BME280;19508;42.578;23.416;2022-09-09T14:57:33;93648.06;;;27.92;45.08
33151;BME280;19508;42.578;23.416;2022-09-09T15:00:00;93652.41;;;27.93;44.76
33151;BME280;19508;42.578;23.416;2022-09-09T15:02:26;93644.88;;;27.90;45.29
33151;BME280;19508;42.578;23.416;2022-09-09T15:04:52;93653.16;;;27.90;44.91
33151;BME280;19508;42.578;23.416;2022-09-09T15:07:18;93654.34;;;27.89;43.31
33151;BME280;19508;42.578;23.416;2022-09-09T15:09:44;93660.25;;;27.87;44.60
33151;BME280;19508;42.578;23.416;2022-09-09T15:12:10;93661.31;;;27.82;44.36
33151;BME280;19508;42.578;23.416;2022-09-09T15:14:35;93664.75;;;27.76;45.27
33151;BME280;19508;42.578;23.416;2022-09-09T15:17:01;93660.09;;;27.61;46.17
33151;BME280;19508;42.578;23.416;2022-09-09T15:19:26;93667.94;;;27.59;45.68
33151;BME280;19508;42.578;23.416;2022-09-09T15:21:52;93674.78;;;27.45;46.23